Terminal Aerodrome Forecast
Issued by NWS Dallas/Fort Worth, TX

Home | Current Version | Previous Version | Text Only | Print | Product List | Glossary On
Versions: 1 2 3 4 5 6 7 8 9 10 11 12 13 14 15 16 17 18 19 20 21 22 23 24 25 26 27 28 29 30 31
000
FTUS44 KFWD 160903 AAB
TAFACT
TAF AMD
KACT 160903Z 1609/1706 36018G28KT P6SM -SN OVC050
     FM161100 35017G27KT P6SM OVC060
     FM161300 36016KT P6SM SCT060 BKN090
     FM170000 36008KT P6SM SCT100 SCT300=

USA.gov is the U.S. government's official web portal to all federal, state and local government web resources and services.